createdAt,value
2017-12-13T00:00:14.586Z,99.99
2017-12-13T00:01:14.574Z,99.99
2017-12-13T00:02:14.556Z,99.57
2017-12-13T00:03:14.548Z,99.19
2017-12-13T00:04:14.531Z,98.90
2017-12-13T00:05:14.517Z,99.57
2017-12-13T00:06:14.495Z,98.81
2017-12-13T00:07:14.481Z,98.96
2017-12-13T00:08:14.467Z,99.05
2017-12-13T00:09:14.450Z,99.99
2017-12-13T00:10:14.448Z,99.62
2017-12-13T00:11:14.420Z,99.99
2017-12-13T00:12:14.414Z,99.99
2017-12-13T00:13:14.388Z,99.99
2017-12-13T00:14:14.380Z,99.80
2017-12-13T00:15:14.359Z,98.96
2017-12-13T00:16:14.344Z,98.39
2017-12-13T00:17:14.327Z,97.34
2017-12-13T00:18:14.312Z,97.34
2017-12-13T00:19:14.305Z,98.48
2017-12-13T00:20:14.284Z,98.20
2017-12-13T00:21:14.266Z,97.53
2017-12-13T00:22:14.251Z,96.88
2017-12-13T00:23:14.240Z,98.24
2017-12-13T00:24:14.222Z,99.33
2017-12-13T00:25:14.205Z,99.15
2017-12-13T00:26:14.193Z,98.10
2017-12-13T00:27:14.178Z,97.53
2017-12-13T00:28:14.161Z,96.88
2017-12-13T00:29:14.145Z,97.01
2017-12-13T00:30:14.131Z,97.58
2017-12-13T00:31:14.116Z,98.81
2017-12-13T00:32:14.105Z,99.00
2017-12-13T00:33:14.086Z,98.05
2017-12-13T00:34:14.070Z,98.33
2017-12-13T00:35:14.056Z,98.24
2017-12-13T00:36:14.039Z,97.49
2017-12-13T00:37:14.030Z,98.24
2017-12-13T00:38:14.007Z,98.71
2017-12-13T00:39:13.995Z,99.15
2017-12-13T00:40:13.980Z,98.24
2017-12-13T00:41:13.963Z,97.30
2017-12-13T00:42:13.953Z,96.83
2017-12-13T00:43:13.938Z,97.49
2017-12-13T00:44:13.919Z,98.24
2017-12-13T00:45:13.901Z,98.52
2017-12-13T00:46:13.885Z,98.62
2017-12-13T00:47:13.870Z,98.86
2017-12-13T00:48:13.857Z,98.96
2017-12-13T00:49:13.840Z,99.24
2017-12-13T00:50:13.831Z,97.72
2017-12-13T00:51:13.816Z,98.48
2017-12-13T00:52:13.796Z,99.05
2017-12-13T00:53:13.784Z,98.96
2017-12-13T00:54:13.769Z,96.59
2017-12-13T00:55:13.749Z,94.70
2017-12-13T00:56:13.734Z,93.66
2017-12-13T00:57:13.723Z,94.51
2017-12-13T00:58:13.702Z,95.17
2017-12-13T00:59:13.687Z,95.26
2017-12-13T01:00:13.673Z,95.45
2017-12-13T01:01:13.657Z,95.59
2017-12-13T01:02:13.640Z,96.02
2017-12-13T01:03:13.630Z,95.88
2017-12-13T01:04:13.613Z,96.73
2017-12-13T01:05:13.602Z,97.30
2017-12-13T01:06:13.580Z,97.49
2017-12-13T01:07:13.564Z,98.05
2017-12-13T01:08:13.554Z,98.33
2017-12-13T01:09:13.539Z,99.00
2017-12-13T01:10:13.518Z,99.38
2017-12-13T01:11:13.502Z,99.99
2017-12-13T01:12:13.487Z,99.85
2017-12-13T01:13:13.477Z,99.00
2017-12-13T01:14:13.462Z,99.19
2017-12-13T01:15:13.442Z,99.57
2017-12-13T01:16:13.431Z,99.76
2017-12-13T01:17:13.412Z,99.95
2017-12-13T01:18:13.394Z,99.47
2017-12-13T01:19:13.386Z,99.19
2017-12-13T01:20:13.366Z,98.14
2017-12-13T01:21:13.349Z,98.05
2017-12-13T01:22:13.334Z,98.05
2017-12-13T01:23:13.324Z,98.43
2017-12-13T01:24:13.303Z,98.43
2017-12-13T01:25:13.287Z,98.24
2017-12-13T01:26:13.273Z,97.86
2017-12-13T01:27:13.256Z,98.52
2017-12-13T01:28:13.243Z,98.52
2017-12-13T01:29:13.227Z,99.19
2017-12-13T01:30:13.211Z,99.00
2017-12-13T01:31:13.198Z,98.62
2017-12-13T01:32:13.180Z,98.71
2017-12-13T01:33:13.168Z,98.71
2017-12-13T01:34:13.154Z,99.00
2017-12-13T01:35:13.138Z,98.90
2017-12-13T01:36:13.124Z,98.90
2017-12-13T01:37:13.102Z,99.09
2017-12-13T01:38:13.088Z,99.76
2017-12-13T01:39:13.075Z,98.90
2017-12-13T01:40:13.058Z,99.09
2017-12-13T01:41:13.041Z,99.09
2017-12-13T01:42:13.025Z,99.38
2017-12-13T01:43:13.011Z,99.57
2017-12-13T01:44:12.995Z,99.09
2017-12-13T01:45:12.979Z,99.38
2017-12-13T01:46:12.968Z,99.09
2017-12-13T01:47:12.949Z,98.90
2017-12-13T01:48:12.936Z,99.38
2017-12-13T01:49:12.919Z,99.99
2017-12-13T01:50:12.901Z,99.99
2017-12-13T01:51:12.914Z,99.95
2017-12-13T01:52:12.870Z,99.00
2017-12-13T01:53:12.853Z,98.81
2017-12-13T01:54:12.842Z,98.71
2017-12-13T01:55:12.823Z,99.00
2017-12-13T01:56:12.810Z,99.19
2017-12-13T01:57:12.799Z,98.90
2017-12-13T01:58:12.781Z,98.71
2017-12-13T01:59:12.761Z,98.81
2017-12-13T02:00:12.753Z,99.19
2017-12-13T02:01:12.729Z,99.00
2017-12-13T02:02:12.715Z,98.90
2017-12-13T02:03:12.699Z,98.90
2017-12-13T02:04:12.683Z,98.90
2017-12-13T02:05:12.668Z,99.38
2017-12-13T02:06:12.651Z,98.62
2017-12-13T02:07:12.637Z,99.09
2017-12-13T02:08:12.623Z,99.00
2017-12-13T02:09:12.604Z,99.19
2017-12-13T02:10:12.590Z,98.81
2017-12-13T02:11:12.576Z,99.09
2017-12-13T02:12:12.560Z,99.76
2017-12-13T02:13:12.542Z,99.57
2017-12-13T02:14:12.528Z,99.99
2017-12-13T02:15:12.512Z,99.47
2017-12-13T02:16:12.501Z,98.90
2017-12-13T02:17:12.479Z,99.09
2017-12-13T02:18:12.466Z,98.71
2017-12-13T02:19:12.452Z,99.09
2017-12-13T02:20:12.436Z,99.09
2017-12-13T02:21:12.418Z,98.90
2017-12-13T02:22:12.402Z,99.38
2017-12-13T02:23:12.387Z,99.66
2017-12-13T02:24:12.372Z,99.47
2017-12-13T02:25:12.356Z,99.85
2017-12-13T02:26:12.339Z,99.95
2017-12-13T02:27:12.327Z,99.99
2017-12-13T02:28:12.313Z,99.76
2017-12-13T02:29:12.294Z,99.76
2017-12-13T02:30:12.284Z,99.57
2017-12-13T02:31:12.261Z,99.85
2017-12-13T02:32:12.244Z,99.76
2017-12-13T02:33:12.230Z,99.47
2017-12-13T02:34:12.244Z,99.52
2017-12-13T02:35:12.201Z,99.95
2017-12-13T02:36:12.187Z,99.99
2017-12-13T02:37:12.172Z,99.89
2017-12-13T02:38:12.152Z,99.95
2017-12-13T02:39:12.135Z,99.80
2017-12-13T02:40:12.122Z,99.71
2017-12-13T02:41:12.103Z,99.99
2017-12-13T02:42:12.092Z,99.99
2017-12-13T02:43:12.077Z,99.99
2017-12-13T02:44:12.062Z,99.99
2017-12-13T02:45:12.046Z,99.57
2017-12-13T02:46:12.025Z,99.00
2017-12-13T02:47:12.010Z,99.00
2017-12-13T02:48:12.000Z,98.90
2017-12-13T02:49:11.978Z,99.00
2017-12-13T02:50:11.969Z,99.19
2017-12-13T02:51:11.953Z,98.52
2017-12-13T02:52:11.929Z,98.62
2017-12-13T02:53:11.922Z,98.43
2017-12-13T02:54:11.905Z,99.19
2017-12-13T02:55:11.883Z,98.66
2017-12-13T02:56:11.868Z,98.71
2017-12-13T02:57:11.852Z,98.71
2017-12-13T02:58:11.835Z,98.62
2017-12-13T02:59:11.819Z,98.71
2017-12-13T03:00:11.803Z,99.09
2017-12-13T03:01:11.793Z,98.81
2017-12-13T03:02:11.770Z,98.90
2017-12-13T03:03:11.757Z,99.47
2017-12-13T03:04:11.740Z,99.95
2017-12-13T03:05:11.723Z,99.99
2017-12-13T03:06:11.707Z,99.57
2017-12-13T03:07:11.690Z,99.00
2017-12-13T03:08:11.676Z,99.00
2017-12-13T03:09:11.660Z,99.00
2017-12-13T03:10:11.652Z,98.14
2017-12-13T03:11:11.629Z,98.14
2017-12-13T03:12:11.613Z,98.33
2017-12-13T03:13:11.599Z,99.47
2017-12-13T03:14:11.588Z,98.90
2017-12-13T03:15:11.572Z,98.71
2017-12-13T03:16:11.551Z,97.39
2017-12-13T03:17:11.543Z,97.49
2017-12-13T03:18:11.522Z,96.92
2017-12-13T03:19:11.501Z,96.92
2017-12-13T03:20:11.494Z,95.69
2017-12-13T03:21:11.472Z,96.54
2017-12-13T03:22:11.455Z,96.64
2017-12-13T03:23:11.445Z,97.11
2017-12-13T03:24:11.424Z,96.83
2017-12-13T03:25:11.411Z,97.39
2017-12-13T03:26:11.392Z,97.39
2017-12-13T03:27:11.376Z,97.96
2017-12-13T03:28:11.360Z,98.24
2017-12-13T03:29:11.343Z,97.49
2017-12-13T03:30:11.327Z,98.14
2017-12-13T03:31:11.313Z,98.43
2017-12-13T03:32:11.298Z,97.77
2017-12-13T03:33:11.279Z,96.45
2017-12-13T03:34:11.270Z,96.54
2017-12-13T03:35:11.247Z,97.11
2017-12-13T03:36:11.234Z,96.54
2017-12-13T03:37:11.217Z,96.92
2017-12-13T03:38:11.201Z,97.30
2017-12-13T03:39:11.185Z,96.83
2017-12-13T03:40:11.175Z,96.16
2017-12-13T03:41:11.154Z,95.69
2017-12-13T03:42:11.137Z,95.78
2017-12-13T03:43:11.126Z,95.59
2017-12-13T03:44:11.113Z,95.78
2017-12-13T03:45:11.090Z,95.78
2017-12-13T03:46:11.074Z,96.54
2017-12-13T03:47:11.103Z,95.78
2017-12-13T03:48:11.049Z,95.78
2017-12-13T03:49:11.026Z,96.16
2017-12-13T03:50:11.010Z,95.88
2017-12-13T03:51:11.003Z,96.54
2017-12-13T03:52:10.983Z,96.45
2017-12-13T03:53:10.970Z,97.49
2017-12-13T03:54:10.949Z,97.39
2017-12-13T03:55:10.932Z,97.20
2017-12-13T03:56:10.917Z,97.96
2017-12-13T03:57:10.901Z,97.67
2017-12-13T03:58:10.891Z,97.20
2017-12-13T03:59:10.872Z,96.92
2017-12-13T04:00:10.855Z,99.00
2017-12-13T04:01:10.839Z,99.00
2017-12-13T04:02:10.823Z,98.90
2017-12-13T04:03:10.808Z,96.92
2017-12-13T04:04:10.792Z,95.78
2017-12-13T04:05:10.777Z,95.78
2017-12-13T04:06:10.767Z,95.97
2017-12-13T04:07:10.746Z,95.69
2017-12-13T04:08:10.730Z,95.69
2017-12-13T04:09:10.717Z,96.07
2017-12-13T04:10:10.706Z,96.07
2017-12-13T04:11:10.689Z,95.97
2017-12-13T04:12:10.673Z,95.97
2017-12-13T04:13:10.651Z,95.88
2017-12-13T04:14:10.641Z,95.59
2017-12-13T04:15:10.621Z,96.64
2017-12-13T04:16:10.623Z,97.01
2017-12-13T04:17:10.588Z,96.92
2017-12-13T04:18:10.582Z,96.83
2017-12-13T04:19:10.557Z,97.77
2017-12-13T04:20:10.543Z,97.58
2017-12-13T04:21:10.526Z,97.77
2017-12-13T04:22:10.511Z,97.20
2017-12-13T04:23:10.496Z,97.01
2017-12-13T04:24:10.479Z,96.92
2017-12-13T04:25:10.469Z,96.73
2017-12-13T04:26:10.450Z,97.01
2017-12-13T04:27:10.432Z,97.11
2017-12-13T04:28:10.418Z,96.92
2017-12-13T04:29:10.403Z,96.92
2017-12-13T04:30:10.392Z,96.83
2017-12-13T04:31:10.371Z,96.83
2017-12-13T04:32:10.363Z,96.73
2017-12-13T04:33:10.338Z,97.01
2017-12-13T04:34:10.323Z,97.01
2017-12-13T04:35:10.310Z,96.64
2017-12-13T04:36:10.294Z,97.39
2017-12-13T04:37:10.277Z,97.67
2017-12-13T04:38:10.267Z,96.83
2017-12-13T04:39:10.246Z,97.39
2017-12-13T04:40:10.230Z,96.83
2017-12-13T04:41:10.215Z,96.92
2017-12-13T04:42:10.198Z,96.83
2017-12-13T04:43:10.183Z,96.45
2017-12-13T04:44:10.168Z,96.64
2017-12-13T04:45:10.153Z,96.64
2017-12-13T04:46:10.136Z,96.83
2017-12-13T04:47:10.126Z,96.64
2017-12-13T04:48:10.107Z,96.92
2017-12-13T04:49:10.094Z,96.54
2017-12-13T04:50:10.082Z,96.73
2017-12-13T04:51:10.065Z,97.01
2017-12-13T04:52:10.043Z,96.54
2017-12-13T04:53:10.030Z,96.54
2017-12-13T04:54:10.012Z,95.78
2017-12-13T04:55:09.997Z,96.16
2017-12-13T04:56:09.981Z,96.35
2017-12-13T04:57:09.967Z,96.16
2017-12-13T04:58:09.955Z,95.88
2017-12-13T04:59:09.938Z,96.64
2017-12-13T05:00:09.925Z,96.83
2017-12-13T05:01:09.902Z,96.92
2017-12-13T05:02:09.889Z,97.49
2017-12-13T05:03:09.872Z,96.64
2017-12-13T05:04:09.856Z,96.83
2017-12-13T05:05:09.839Z,96.83
2017-12-13T05:06:09.825Z,97.30
2017-12-13T05:07:09.810Z,97.58
2017-12-13T05:08:09.800Z,97.44
2017-12-13T05:09:09.782Z,97.34
2017-12-13T05:10:09.766Z,98.10
2017-12-13T05:11:09.745Z,97.91
2017-12-13T05:12:09.736Z,97.63
2017-12-13T05:13:09.719Z,98.28
2017-12-13T05:14:09.706Z,98.57
2017-12-13T05:15:09.686Z,98.28
2017-12-13T05:16:09.672Z,98.66
2017-12-13T05:17:09.651Z,98.57
2017-12-13T05:18:09.640Z,98.66
2017-12-13T05:19:09.621Z,98.95
2017-12-13T05:20:09.606Z,98.95
2017-12-13T05:21:09.593Z,98.85
2017-12-13T05:22:09.574Z,99.14
2017-12-13T05:23:09.557Z,99.04
2017-12-13T05:24:09.547Z,98.57
2017-12-13T05:25:09.528Z,98.66
2017-12-13T05:26:09.510Z,98.57
2017-12-13T05:27:09.495Z,99.23
2017-12-13T05:28:09.477Z,98.85
2017-12-13T05:29:09.464Z,98.85
2017-12-13T05:30:09.445Z,98.47
2017-12-13T05:31:09.428Z,98.57
2017-12-13T05:32:09.413Z,98.85
2017-12-13T05:33:09.399Z,98.76
2017-12-13T05:34:09.384Z,98.47
2017-12-13T05:35:09.371Z,98.47
2017-12-13T05:36:09.356Z,98.47
2017-12-13T05:37:09.334Z,98.71
2017-12-13T05:38:09.322Z,98.43
2017-12-13T05:39:09.303Z,98.43
2017-12-13T05:40:09.292Z,98.05
2017-12-13T05:41:09.269Z,98.24
2017-12-13T05:42:09.252Z,97.67
2017-12-13T05:43:09.242Z,97.58
2017-12-13T05:44:09.245Z,97.58
2017-12-13T05:45:09.264Z,96.83
2017-12-13T05:46:09.197Z,97.96
2017-12-13T05:47:09.199Z,98.43
2017-12-13T05:48:09.186Z,97.20
2017-12-13T05:49:09.156Z,96.54
2017-12-13T05:50:09.136Z,95.69
2017-12-13T05:51:09.119Z,95.88
2017-12-13T05:52:09.110Z,95.88
2017-12-13T05:53:09.084Z,95.97
2017-12-13T05:54:09.069Z,95.59
2017-12-13T05:55:09.057Z,95.88
2017-12-13T05:56:09.035Z,95.59
2017-12-13T05:57:09.026Z,95.78
2017-12-13T05:58:09.005Z,95.69
2017-12-13T05:59:08.989Z,96.16
2017-12-13T06:00:08.974Z,96.16
2017-12-13T06:01:08.956Z,95.88
2017-12-13T06:02:08.960Z,95.69
2017-12-13T06:03:08.924Z,96.07
2017-12-13T06:04:08.908Z,96.83
2017-12-13T06:05:08.893Z,98.14
2017-12-13T06:06:08.877Z,96.26
2017-12-13T06:07:08.864Z,95.69
2017-12-13T06:08:08.848Z,95.59
2017-12-13T06:09:08.831Z,95.88
2017-12-13T06:10:08.815Z,95.97
2017-12-13T06:11:08.800Z,95.31
2017-12-13T06:12:08.789Z,95.69
2017-12-13T06:13:08.766Z,97.30
2017-12-13T06:14:08.751Z,96.73
2017-12-13T06:15:08.735Z,96.54
2017-12-13T06:16:08.719Z,96.07
2017-12-13T06:17:08.703Z,96.54
2017-12-13T06:18:08.692Z,96.35
2017-12-13T06:19:08.672Z,96.35
2017-12-13T06:20:08.657Z,95.69
2017-12-13T06:21:08.642Z,95.40
2017-12-13T06:22:08.626Z,96.16
2017-12-13T06:23:08.610Z,98.14
2017-12-13T06:24:08.593Z,98.33
2017-12-13T06:25:08.577Z,99.28
2017-12-13T06:26:08.562Z,96.64
2017-12-13T06:27:08.550Z,95.21
2017-12-13T06:28:08.537Z,95.12
2017-12-13T06:29:08.514Z,95.03
2017-12-13T06:30:08.503Z,95.21
2017-12-13T06:31:08.485Z,94.84
2017-12-13T06:32:08.472Z,95.03
2017-12-13T06:33:08.455Z,95.31
2017-12-13T06:34:08.432Z,95.12
2017-12-13T06:35:08.418Z,95.50
2017-12-13T06:36:08.415Z,95.78
2017-12-13T06:37:08.392Z,95.59
2017-12-13T06:38:08.370Z,95.78
2017-12-13T06:39:08.354Z,96.54
2017-12-13T06:40:08.339Z,95.97
2017-12-13T06:41:08.328Z,95.40
2017-12-13T06:42:08.312Z,96.73
2017-12-13T06:43:08.293Z,95.40
2017-12-13T06:44:08.280Z,96.83
2017-12-13T06:45:08.262Z,95.88
2017-12-13T06:46:08.245Z,95.03
2017-12-13T06:47:08.230Z,94.37
2017-12-13T06:48:08.213Z,94.74
2017-12-13T06:49:08.254Z,94.56
2017-12-13T06:50:08.180Z,94.65
2017-12-13T06:51:08.170Z,95.31
2017-12-13T06:52:08.150Z,95.21
2017-12-13T06:53:08.134Z,93.99
2017-12-13T06:54:08.115Z,96.16
2017-12-13T06:55:08.106Z,94.93
2017-12-13T06:56:08.093Z,93.61
2017-12-13T06:57:08.069Z,93.23
2017-12-13T06:58:08.061Z,93.32
2017-12-13T06:59:08.039Z,93.61
2017-12-13T07:00:08.025Z,93.99
2017-12-13T07:01:08.020Z,94.56
2017-12-13T07:02:07.999Z,95.31
2017-12-13T07:03:07.984Z,95.03
2017-12-13T07:04:07.968Z,96.45
2017-12-13T07:05:07.947Z,97.01
2017-12-13T07:06:07.928Z,94.56
2017-12-13T07:07:07.911Z,94.18
2017-12-13T07:08:07.898Z,94.37
2017-12-13T07:09:07.879Z,95.50
2017-12-13T07:10:07.870Z,95.12
2017-12-13T07:11:07.848Z,94.18
2017-12-13T07:12:07.832Z,94.08
2017-12-13T07:13:07.822Z,94.56
2017-12-13T07:14:07.801Z,94.08
2017-12-13T07:15:07.784Z,94.84
2017-12-13T07:16:07.772Z,94.56
2017-12-13T07:17:07.753Z,93.80
2017-12-13T07:18:07.746Z,93.51
2017-12-13T07:19:07.727Z,92.29
2017-12-13T07:20:07.706Z,94.84
2017-12-13T07:21:07.689Z,94.56
2017-12-13T07:22:07.676Z,94.56
2017-12-13T07:23:07.664Z,94.65
2017-12-13T07:24:07.648Z,93.23
2017-12-13T07:25:07.629Z,92.76
2017-12-13T07:26:07.609Z,93.70
2017-12-13T07:27:07.604Z,93.42
2017-12-13T07:28:07.584Z,92.85
2017-12-13T07:29:07.565Z,95.64
2017-12-13T07:30:07.553Z,95.26
2017-12-13T07:31:07.533Z,92.94
2017-12-13T07:32:07.522Z,94.08
2017-12-13T07:33:07.506Z,94.93
2017-12-13T07:34:07.487Z,93.99
2017-12-13T07:35:07.469Z,93.47
2017-12-13T07:36:07.452Z,93.85
2017-12-13T07:37:07.436Z,94.56
2017-12-13T07:38:07.420Z,93.89
2017-12-13T07:39:07.406Z,95.36
2017-12-13T07:40:07.397Z,94.13
2017-12-13T07:41:07.379Z,93.28
2017-12-13T07:42:07.359Z,92.99
2017-12-13T07:43:07.349Z,94.32
2017-12-13T07:44:07.334Z,95.26
2017-12-13T07:45:07.312Z,94.32
2017-12-13T07:46:07.296Z,92.52
2017-12-13T07:47:07.280Z,94.23
2017-12-13T07:48:07.266Z,95.17
2017-12-13T07:49:07.254Z,92.43
2017-12-13T07:50:07.240Z,92.80
2017-12-13T07:51:07.224Z,93.28
2017-12-13T07:52:07.214Z,91.96
2017-12-13T07:53:07.188Z,93.75
2017-12-13T07:54:07.170Z,93.28
2017-12-13T07:55:07.154Z,91.86
2017-12-13T07:56:07.139Z,91.96
2017-12-13T07:57:07.122Z,91.29
2017-12-13T07:58:07.108Z,94.23
2017-12-13T07:59:07.097Z,92.80
2017-12-13T08:00:07.078Z,91.67
2017-12-13T08:01:07.062Z,91.67
2017-12-13T08:02:07.050Z,91.01
2017-12-13T08:03:07.031Z,92.52
2017-12-13T08:04:07.015Z,91.67
2017-12-13T08:05:06.997Z,93.47
2017-12-13T08:06:06.983Z,92.05
2017-12-13T08:07:06.972Z,90.91
2017-12-13T08:08:06.959Z,91.20
2017-12-13T08:09:06.935Z,92.90
2017-12-13T08:10:06.921Z,91.48
2017-12-13T08:11:06.911Z,91.20
2017-12-13T08:12:06.895Z,91.48
2017-12-13T08:13:06.872Z,89.69
2017-12-13T08:14:06.858Z,91.48
2017-12-13T08:15:06.848Z,93.80
2017-12-13T08:16:06.832Z,95.12
2017-12-13T08:17:06.812Z,90.44
2017-12-13T08:18:06.803Z,89.16
2017-12-13T08:19:06.780Z,88.83
2017-12-13T08:20:06.767Z,89.21
2017-12-13T08:21:06.756Z,90.44
2017-12-13T08:22:06.735Z,91.67
2017-12-13T08:23:06.720Z,89.78
2017-12-13T08:24:06.704Z,89.59
2017-12-13T08:25:06.689Z,89.87
2017-12-13T08:26:06.672Z,92.14
2017-12-13T08:27:06.662Z,92.99
2017-12-13T08:28:06.641Z,91.48
2017-12-13T08:29:06.632Z,91.29
2017-12-13T08:30:06.613Z,90.67
2017-12-13T08:31:06.598Z,89.06
2017-12-13T08:32:06.580Z,89.12
2017-12-13T08:33:06.571Z,90.01
2017-12-13T08:34:06.556Z,90.53
2017-12-13T08:35:06.534Z,91.48
2017-12-13T08:36:06.520Z,89.82
2017-12-13T08:37:06.508Z,90.96
2017-12-13T08:38:06.494Z,92.10
2017-12-13T08:39:06.479Z,92.00
2017-12-13T08:40:06.460Z,92.66
2017-12-13T08:41:06.443Z,89.63
2017-12-13T08:42:06.435Z,89.73
2017-12-13T08:43:06.421Z,88.31
2017-12-13T08:44:06.397Z,88.68
2017-12-13T08:45:06.387Z,91.15
2017-12-13T08:46:06.370Z,90.48
2017-12-13T08:47:06.351Z,89.16
2017-12-13T08:48:06.338Z,90.58
2017-12-13T08:49:06.327Z,91.05
2017-12-13T08:50:06.311Z,89.06
2017-12-13T08:51:06.291Z,90.01
2017-12-13T08:52:06.277Z,88.97
2017-12-13T08:53:06.261Z,91.81
2017-12-13T08:54:06.247Z,89.73
2017-12-13T08:55:06.229Z,89.16
2017-12-13T08:56:06.216Z,88.12
2017-12-13T08:57:06.199Z,87.84
2017-12-13T08:58:06.183Z,87.46
2017-12-13T08:59:06.174Z,92.66
2017-12-13T09:00:06.155Z,90.58
2017-12-13T09:01:06.139Z,88.68
2017-12-13T09:02:06.125Z,87.65
2017-12-13T09:03:06.113Z,87.27
2017-12-13T09:04:06.097Z,87.55
2017-12-13T09:05:06.085Z,88.40
2017-12-13T09:06:06.067Z,89.30
2017-12-13T09:07:06.052Z,87.98
2017-12-13T09:08:06.044Z,87.12
2017-12-13T09:09:06.022Z,85.89
2017-12-13T09:10:06.007Z,85.42
2017-12-13T09:11:05.993Z,85.61
2017-12-13T09:12:05.985Z,85.80
2017-12-13T09:13:05.966Z,89.58
2017-12-13T09:14:05.949Z,88.45
2017-12-13T09:15:05.937Z,86.27
2017-12-13T09:16:05.931Z,85.32
2017-12-13T09:17:05.911Z,84.75
2017-12-13T09:18:05.891Z,85.32
2017-12-13T09:19:05.878Z,84.47
2017-12-13T09:20:05.866Z,85.70
2017-12-13T09:21:05.850Z,85.23
2017-12-13T09:22:05.847Z,86.08
2017-12-13T09:23:05.823Z,84.66
2017-12-13T09:24:05.807Z,85.70
2017-12-13T09:25:05.794Z,84.80
2017-12-13T09:26:05.786Z,84.42
2017-12-13T09:27:05.764Z,84.42
2017-12-13T09:28:05.753Z,85.08
2017-12-13T09:29:05.736Z,87.07
2017-12-13T09:30:05.724Z,87.26
2017-12-13T09:31:05.717Z,84.70
2017-12-13T09:32:05.716Z,84.89
2017-12-13T09:33:05.684Z,83.37
2017-12-13T09:34:05.668Z,83.28
2017-12-13T09:35:05.661Z,84.80
2017-12-13T09:36:05.649Z,83.94
2017-12-13T09:37:05.634Z,85.74
2017-12-13T09:38:05.614Z,84.13
2017-12-13T09:39:05.602Z,82.71
2017-12-13T09:40:05.594Z,83.09
2017-12-13T09:41:05.573Z,83.56
2017-12-13T09:42:05.561Z,86.16
2017-12-13T09:43:05.550Z,84.65
2017-12-13T09:44:05.535Z,83.70
2017-12-13T09:45:05.522Z,83.98
2017-12-13T09:46:05.514Z,82.56
2017-12-13T09:47:05.503Z,82.94
2017-12-13T09:48:05.482Z,83.80
2017-12-13T09:49:05.470Z,83.61
2017-12-13T09:50:05.456Z,81.99
2017-12-13T09:51:05.509Z,80.76
2017-12-13T09:52:05.432Z,82.28
2017-12-13T09:53:05.461Z,80.57
2017-12-13T09:54:05.404Z,82.75
2017-12-13T09:55:05.392Z,82.75
2017-12-13T09:56:05.379Z,83.80
2017-12-13T09:57:05.369Z,80.95
2017-12-13T09:58:05.357Z,83.42
2017-12-13T09:59:05.340Z,80.76
2017-12-13T10:00:05.326Z,80.86
2017-12-13T10:01:05.318Z,82.56
2017-12-13T10:02:05.300Z,82.75
2017-12-13T10:03:05.287Z,82.85
2017-12-13T10:04:05.289Z,82.09
2017-12-13T10:05:05.262Z,80.95
2017-12-13T10:06:05.260Z,81.76
2017-12-13T10:07:05.237Z,81.57
2017-12-13T10:08:05.228Z,82.71
2017-12-13T10:09:05.211Z,83.56
2017-12-13T10:10:05.199Z,85.69
2017-12-13T10:11:05.183Z,83.80
2017-12-13T10:12:05.172Z,81.81
2017-12-13T10:13:05.159Z,80.76
2017-12-13T10:14:05.144Z,80.76
2017-12-13T10:15:05.136Z,81.62
2017-12-13T10:16:05.119Z,82.56
2017-12-13T10:17:05.104Z,80.48
2017-12-13T10:18:05.094Z,80.38
2017-12-13T10:19:05.089Z,80.86
2017-12-13T10:20:05.073Z,79.44
2017-12-13T10:21:05.066Z,81.43
2017-12-13T10:22:05.039Z,79.72
2017-12-13T10:23:05.029Z,80.67
2017-12-13T10:24:05.023Z,79.91
2017-12-13T10:25:05.003Z,81.24
2017-12-13T10:26:04.991Z,82.85
2017-12-13T10:27:04.987Z,80.86
2017-12-13T10:28:04.966Z,78.96
2017-12-13T10:29:04.952Z,81.62
2017-12-13T10:30:04.942Z,80.00
2017-12-13T10:31:04.935Z,80.38
2017-12-13T10:32:04.921Z,80.76
2017-12-13T10:33:04.900Z,78.96
2017-12-13T10:34:04.894Z,79.63
2017-12-13T10:35:04.882Z,82.09
2017-12-13T10:36:04.869Z,80.95
2017-12-13T10:37:04.852Z,82.47
2017-12-13T10:38:04.848Z,80.86
2017-12-13T10:39:04.824Z,79.72
2017-12-13T10:40:04.813Z,79.63
2017-12-13T10:41:04.804Z,81.29
2017-12-13T10:42:04.786Z,82.56
2017-12-13T10:43:04.776Z,84.08
2017-12-13T10:44:04.763Z,82.75
2017-12-13T10:45:04.756Z,82.85
2017-12-13T10:46:04.737Z,80.72
2017-12-13T10:47:04.729Z,79.68
2017-12-13T10:48:04.710Z,81.10
2017-12-13T10:49:04.704Z,82.56
2017-12-13T10:50:04.687Z,82.37
2017-12-13T10:51:04.675Z,81.43
2017-12-13T10:52:04.662Z,80.86
2017-12-13T10:53:04.647Z,81.90
2017-12-13T10:54:04.635Z,81.62
2017-12-13T10:55:04.624Z,80.57
2017-12-13T10:56:04.611Z,80.57
2017-12-13T10:57:04.597Z,80.48
2017-12-13T10:58:04.586Z,80.67
2017-12-13T10:59:04.574Z,80.57
2017-12-13T11:00:04.565Z,80.38
2017-12-13T11:01:04.547Z,79.82
2017-12-13T11:02:04.538Z,81.33
2017-12-13T11:03:04.523Z,80.76
2017-12-13T11:04:04.513Z,78.87
2017-12-13T11:05:04.499Z,79.25
2017-12-13T11:06:04.487Z,79.53
2017-12-13T11:07:04.480Z,78.72
2017-12-13T11:08:04.470Z,78.05
2017-12-13T11:09:04.446Z,77.58
2017-12-13T11:10:04.437Z,77.77
2017-12-13T11:11:04.424Z,77.86
2017-12-13T11:12:04.413Z,77.67
2017-12-13T11:13:04.404Z,77.39
2017-12-13T11:14:04.387Z,77.96
2017-12-13T11:15:04.379Z,78.30
2017-12-13T11:16:04.363Z,77.96
2017-12-13T11:17:04.349Z,77.06
2017-12-13T11:18:04.336Z,77.83
2017-12-13T11:19:04.344Z,75.45
2017-12-13T11:20:04.323Z,77.64
2017-12-13T11:21:04.305Z,76.12
2017-12-13T11:22:04.288Z,76.21
2017-12-13T11:23:04.280Z,76.50
2017-12-13T11:24:04.268Z,77.73
2017-12-13T11:25:04.249Z,80.29
2017-12-13T11:26:04.238Z,77.45
2017-12-13T11:27:04.230Z,78.02
2017-12-13T11:28:04.210Z,77.06
2017-12-13T11:29:04.206Z,77.45
2017-12-13T11:30:04.191Z,77.64
2017-12-13T11:31:04.173Z,77.54
2017-12-13T11:32:04.166Z,76.40
2017-12-13T11:33:04.148Z,75.26
2017-12-13T11:34:04.134Z,74.07
2017-12-13T11:35:04.124Z,73.03
2017-12-13T11:36:04.111Z,79.00
2017-12-13T11:37:04.098Z,79.28
2017-12-13T11:38:04.085Z,75.21
2017-12-13T11:39:04.074Z,73.69
2017-12-13T11:40:04.060Z,76.44
2017-12-13T11:41:04.047Z,75.96
2017-12-13T11:42:04.035Z,76.73
2017-12-13T11:43:04.033Z,74.07
2017-12-13T11:44:04.018Z,72.36
2017-12-13T11:45:04.007Z,73.79
2017-12-13T11:46:03.988Z,72.93
2017-12-13T11:47:03.974Z,73.88
2017-12-13T11:48:03.962Z,74.16
2017-12-13T11:49:03.956Z,76.34
2017-12-13T11:50:03.937Z,75.21
2017-12-13T11:51:03.930Z,74.45
2017-12-13T11:52:03.915Z,75.11
2017-12-13T11:53:03.900Z,74.07
2017-12-13T11:54:03.890Z,73.79
2017-12-13T11:55:03.877Z,72.93
2017-12-13T11:56:03.871Z,73.79
2017-12-13T11:57:03.853Z,73.03
2017-12-13T11:58:03.846Z,75.02
2017-12-13T11:59:03.831Z,75.11
2017-12-13T12:00:03.819Z,73.97
2017-12-13T12:01:03.857Z,74.07
2017-12-13T12:02:03.794Z,75.96
2017-12-13T12:03:03.787Z,75.78
2017-12-13T12:04:03.771Z,73.08
2017-12-13T12:05:03.758Z,74.03
2017-12-13T12:06:03.744Z,75.11
2017-12-13T12:07:03.738Z,75.11
2017-12-13T12:08:03.722Z,73.65
2017-12-13T12:09:03.712Z,74.51
2017-12-13T12:10:03.697Z,77.01
2017-12-13T12:11:03.685Z,75.93
2017-12-13T12:12:03.678Z,74.88
2017-12-13T12:13:03.668Z,76.03
2017-12-13T12:14:03.653Z,77.06
2017-12-13T12:15:03.636Z,74.69
2017-12-13T12:16:03.625Z,74.60
2017-12-13T12:17:03.613Z,75.74
2017-12-13T12:18:03.601Z,76.59
2017-12-13T12:19:03.591Z,73.18
2017-12-13T12:20:03.578Z,73.27
2017-12-13T12:21:03.571Z,73.08
2017-12-13T12:22:03.555Z,74.88
2017-12-13T12:23:03.551Z,74.69
2017-12-13T12:24:03.530Z,75.93
2017-12-13T12:25:03.516Z,75.93
2017-12-13T12:26:03.504Z,77.35
2017-12-13T12:27:03.492Z,77.92
2017-12-13T12:28:03.485Z,76.97
2017-12-13T12:29:03.468Z,75.74
2017-12-13T12:30:03.457Z,74.41
2017-12-13T12:31:03.444Z,76.59
2017-12-13T12:32:03.439Z,76.59
2017-12-13T12:33:03.419Z,75.45
2017-12-13T12:34:03.406Z,74.60
2017-12-13T12:35:03.402Z,73.65
2017-12-13T12:36:03.383Z,73.37
2017-12-13T12:37:03.371Z,75.84
2017-12-13T12:38:03.361Z,76.50
2017-12-13T12:39:03.353Z,74.79
2017-12-13T12:40:03.339Z,74.41
2017-12-13T12:41:03.342Z,74.32
2017-12-13T12:42:03.317Z,75.36
2017-12-13T12:43:03.301Z,73.37
2017-12-13T12:44:03.293Z,72.71
2017-12-13T12:45:03.274Z,74.13
2017-12-13T12:46:03.264Z,73.18
2017-12-13T12:47:03.250Z,76.87
2017-12-13T12:48:03.237Z,74.79
2017-12-13T12:49:03.232Z,74.88
2017-12-13T12:50:03.212Z,75.21
2017-12-13T12:51:03.202Z,71.80
2017-12-13T12:52:03.191Z,74.35